Terminal Aerodrome Forecast
Issued by NWS Grand Forks, ND

Home | Current Version | Previous Version | Text Only | Print | Product List | Glossary On
Versions: 1 2 3 4 5 6 7 8 9 10 11 12 13 14 15 16 17 18 19
316
FTUS43 KFGF 260520
TAFGFK
TAF
KGFK 260520Z 2606/2706 34005KT 5SM -SN BKN023
      TEMPO 2606/2608 2SM -SN OVC015
     FM260800 34006KT 2SM -SN BKN020
     FM260900 33006KT P6SM BKN015
      TEMPO 2609/2611 3SM -SN OVC010
     FM261100 32007KT P6SM BKN050
     FM261300 32007KT P6SM SCT200=

USA.gov is the U.S. government's official web portal to all federal, state and local government web resources and services.